sensor_id;sensor_type;location;lat;lon;timestamp;pressure;altitude;pressure_sealevel;temperature;humidity
17505;BME280;8870;50.950;11.762;2023-01-25T00:00:30;100405.66;;;-0.55;100.00
17505;BME280;8870;50.950;11.762;2023-01-25T00:06:05;100396.94;;;-0.59;100.00
17505;BME280;8870;50.950;11.762;2023-01-25T00:11:37;100394.19;;;-0.56;100.00
17505;BME280;8870;50.950;11.762;2023-01-25T00:16:56;100394.31;;;-0.60;100.00
17505;BME280;8870;50.950;11.762;2023-01-25T00:22:30;100404.97;;;-0.62;100.00
17505;BME280;8870;50.950;11.762;2023-01-25T00:27:48;100396.13;;;-0.63;100.00
17505;BME280;8870;50.950;11.762;2023-01-25T00:33:33;100394.31;;;-0.60;100.00
17505;BME280;8870;50.950;11.762;2023-01-25T00:38:58;100388.06;;;-0.58;100.00
17505;BME280;8870;50.950;11.762;2023-01-25T00:44:29;100380.13;;;-0.58;100.00
17505;BME280;8870;50.950;11.762;2023-01-25T00:49:47;100382.81;;;-0.59;100.00
17505;BME280;8870;50.950;11.762;2023-01-25T00:55:22;100389.91;;;-0.60;100.00
17505;BME280;8870;50.950;11.762;2023-01-25T01:00:40;100399.66;;;-0.62;100.00
17505;BME280;8870;50.950;11.762;2023-01-25T01:06:26;100390.06;;;-0.66;100.00
17505;BME280;8870;50.950;11.762;2023-01-25T01:24:58;100392.75;;;-0.68;100.00
17505;BME280;8870;50.950;11.762;2023-01-25T01:30:18;100386.50;;;-0.65;100.00
17505;BME280;8870;50.950;11.762;2023-01-25T01:35:50;100385.75;;;-0.70;100.00
17505;BME280;8870;50.950;11.762;2023-01-25T01:41:12;100387.59;;;-0.72;100.00
17505;BME280;8870;50.950;11.762;2023-01-25T01:46:46;100395.59;;;-0.75;100.00
17505;BME280;8870;50.950;11.762;2023-01-25T01:52:09;100377.06;;;-0.75;100.00
17505;BME280;8870;50.950;11.762;2023-01-25T01:57:48;100369.25;;;-0.80;100.00
17505;BME280;8870;50.950;11.762;2023-01-25T02:03:08;100354.22;;;-0.78;100.00
17505;BME280;8870;50.950;11.762;2023-01-25T02:08:40;100363.78;;;-0.74;100.00
17505;BME280;8870;50.950;11.762;2023-01-25T02:14:01;100360.34;;;-0.78;100.00
17505;BME280;8870;50.950;11.762;2023-01-25T02:19:41;100356.75;;;-0.75;100.00
17505;BME280;8870;50.950;11.762;2023-01-25T02:25:13;100345.44;;;-0.80;100.00
17505;BME280;8870;50.950;11.762;2023-01-25T02:30:44;100325.13;;;-0.80;100.00
17505;BME280;8870;50.950;11.762;2023-01-25T02:36:16;100319.81;;;-0.80;100.00
17505;BME280;8870;50.950;11.762;2023-01-25T02:41:51;100311.75;;;-0.75;100.00
17505;BME280;8870;50.950;11.762;2023-01-25T02:47:10;100300.25;;;-0.74;100.00
17505;BME280;8870;50.950;11.762;2023-01-25T02:52:42;100301.91;;;-0.70;100.00
17505;BME280;8870;50.950;11.762;2023-01-25T02:58:04;100293.97;;;-0.70;100.00
17505;BME280;8870;50.950;11.762;2023-01-25T03:03:34;100293.91;;;-0.67;100.00
17505;BME280;8870;50.950;11.762;2023-01-25T03:09:01;100292.03;;;-0.65;100.00
17505;BME280;8870;50.950;11.762;2023-01-25T03:14:36;100286.75;;;-0.65;100.00
17505;BME280;8870;50.950;11.762;2023-01-25T03:19:55;100279.69;;;-0.64;100.00
17505;BME280;8870;50.950;11.762;2023-01-25T03:25:27;100284.09;;;-0.63;100.00
17505;BME280;8870;50.950;11.762;2023-01-25T03:31:02;100276.16;;;-0.65;100.00
17505;BME280;8870;50.950;11.762;2023-01-25T03:36:22;100277.06;;;-0.64;100.00
17505;BME280;8870;50.950;11.762;2023-01-25T03:41:54;100262.03;;;-0.64;100.00
17505;BME280;8870;50.950;11.762;2023-01-25T03:47:15;100261.16;;;-0.64;100.00
17505;BME280;8870;50.950;11.762;2023-01-25T03:52:46;100245.28;;;-0.64;100.00
17505;BME280;8870;50.950;11.762;2023-01-25T03:58:13;100235.53;;;-0.64;100.00
17505;BME280;8870;50.950;11.762;2023-01-25T04:03:48;100235.53;;;-0.64;100.00
17505;BME280;8870;50.950;11.762;2023-01-25T04:09:08;100229.41;;;-0.64;100.00
17505;BME280;8870;50.950;11.762;2023-01-25T04:14:40;100218.91;;;-0.67;100.00
17505;BME280;8870;50.950;11.762;2023-01-25T04:20:03;100219.78;;;-0.67;100.00
17505;BME280;8870;50.950;11.762;2023-01-25T04:25:36;100223.34;;;-0.68;100.00
17505;BME280;8870;50.950;11.762;2023-01-25T04:31:07;100217.97;;;-0.66;100.00
17505;BME280;8870;50.950;11.762;2023-01-25T04:36:29;100211.09;;;-0.72;100.00
17505;BME280;8870;50.950;11.762;2023-01-25T04:41:59;100219.84;;;-0.70;100.00
17505;BME280;8870;50.950;11.762;2023-01-25T04:47:21;100221.59;;;-0.69;100.00
17505;BME280;8870;50.950;11.762;2023-01-25T04:52:55;100211.00;;;-0.69;100.00
17505;BME280;8870;50.950;11.762;2023-01-25T04:58:14;100209.19;;;-0.67;100.00
17505;BME280;8870;50.950;11.762;2023-01-25T05:03:45;100208.31;;;-0.67;100.00
17505;BME280;8870;50.950;11.762;2023-01-25T05:09:18;100196.03;;;-0.70;100.00
17505;BME280;8870;50.950;11.762;2023-01-25T05:14:49;100181.06;;;-0.71;100.00
17505;BME280;8870;50.950;11.762;2023-01-25T05:20:09;100177.59;;;-0.73;100.00
17505;BME280;8870;50.950;11.762;2023-01-25T05:25:45;100192.50;;;-0.70;100.00
17505;BME280;8870;50.950;11.762;2023-01-25T05:31:16;100181.16;;;-0.74;100.00
17505;BME280;8870;50.950;11.762;2023-01-25T05:36:48;100173.25;;;-0.75;100.00
17505;BME280;8870;50.950;11.762;2023-01-25T05:42:13;100174.13;;;-0.75;100.00
17505;BME280;8870;50.950;11.762;2023-01-25T05:47:51;100182.88;;;-0.73;100.00
17505;BME280;8870;50.950;11.762;2023-01-25T05:53:10;100187.34;;;-0.75;100.00
17505;BME280;8870;50.950;11.762;2023-01-25T05:58:44;100176.06;;;-0.80;100.00
17505;BME280;8870;50.950;11.762;2023-01-25T06:04:03;100161.91;;;-0.79;100.00
17505;BME280;8870;50.950;11.762;2023-01-25T06:09:34;100161.84;;;-0.78;100.00
17505;BME280;8870;50.950;11.762;2023-01-25T06:14:55;100159.97;;;-0.74;100.00
17505;BME280;8870;50.950;11.762;2023-01-25T06:20:26;100161.72;;;-0.73;100.00
17505;BME280;8870;50.950;11.762;2023-01-25T06:25:52;100164.28;;;-0.70;100.00
17505;BME280;8870;50.950;11.762;2023-01-25T06:31:29;100178.34;;;-0.68;100.00
17505;BME280;8870;50.950;11.762;2023-01-25T06:36:48;100170.47;;;-0.71;100.00
17505;BME280;8870;50.950;11.762;2023-01-25T06:42:19;100165.19;;;-0.71;100.00
17505;BME280;8870;50.950;11.762;2023-01-25T06:47:41;100172.16;;;-0.68;100.00
17505;BME280;8870;50.950;11.762;2023-01-25T06:53:12;100172.22;;;-0.70;100.00
17505;BME280;8870;50.950;11.762;2023-01-25T06:58:31;100166.03;;;-0.70;100.00
17505;BME280;8870;50.950;11.762;2023-01-25T07:04:07;100167.00;;;-0.73;100.00
17505;BME280;8870;50.950;11.762;2023-01-25T07:09:26;100156.41;;;-0.73;100.00
17505;BME280;8870;50.950;11.762;2023-01-25T07:14:57;100156.47;;;-0.74;100.00
17505;BME280;8870;50.950;11.762;2023-01-25T07:20:18;100158.16;;;-0.72;100.00
17505;BME280;8870;50.950;11.762;2023-01-25T07:25:49;100144.00;;;-0.71;100.00
17505;BME280;8870;50.950;11.762;2023-01-25T07:31:22;100147.47;;;-0.69;100.00
17505;BME280;8870;50.950;11.762;2023-01-25T07:36:42;100138.50;;;-0.65;100.00
17505;BME280;8870;50.950;11.762;2023-01-25T07:42:13;100139.44;;;-0.66;100.00
17505;BME280;8870;50.950;11.762;2023-01-25T07:47:46;100134.09;;;-0.64;100.00
17505;BME280;8870;50.950;11.762;2023-01-25T07:53:21;100134.94;;;-0.64;100.00
17505;BME280;8870;50.950;11.762;2023-01-25T07:58:40;100123.59;;;-0.67;100.00
17505;BME280;8870;50.950;11.762;2023-01-25T08:04:11;100121.03;;;-0.70;100.00
17505;BME280;8870;50.950;11.762;2023-01-25T08:09:45;100107.88;;;-0.72;100.00
17505;BME280;8870;50.950;11.762;2023-01-25T08:15:05;100113.91;;;-0.68;100.00
17505;BME280;8870;50.950;11.762;2023-01-25T08:20:36;100104.16;;;-0.66;100.00
17505;BME280;8870;50.950;11.762;2023-01-25T08:26:13;100097.88;;;-0.64;100.00
17505;BME280;8870;50.950;11.762;2023-01-25T08:31:33;100087.13;;;-0.57;100.00
17505;BME280;8870;50.950;11.762;2023-01-25T08:37:05;100081.75;;;-0.56;100.00
17505;BME280;8870;50.950;11.762;2023-01-25T08:42:27;100084.25;;;-0.51;100.00
17505;BME280;8870;50.950;11.762;2023-01-25T08:47:57;100077.22;;;-0.52;100.00
17505;BME280;8870;50.950;11.762;2023-01-25T08:53:16;100069.28;;;-0.52;100.00
17505;BME280;8870;50.950;11.762;2023-01-25T08:58:50;100066.63;;;-0.52;100.00
17505;BME280;8870;50.950;11.762;2023-01-25T09:04:09;100052.69;;;-0.57;100.00
17505;BME280;8870;50.950;11.762;2023-01-25T09:09:40;100031.47;;;-0.56;100.00
17505;BME280;8870;50.950;11.762;2023-01-25T09:15:02;100031.31;;;-0.51;100.00
17505;BME280;8870;50.950;11.762;2023-01-25T09:20:37;100025.06;;;-0.49;100.00
17505;BME280;8870;50.950;11.762;2023-01-25T09:25:56;100018.88;;;-0.49;100.00
17505;BME280;8870;50.950;11.762;2023-01-25T09:31:31;100014.41;;;-0.47;100.00
17505;BME280;8870;50.950;11.762;2023-01-25T09:37:03;100018.03;;;-0.50;100.00
17505;BME280;8870;50.950;11.762;2023-01-25T09:42:55;100013.81;;;-0.55;100.00
17505;BME280;8870;50.950;11.762;2023-01-25T09:48:26;100002.25;;;-0.53;100.00
17505;BME280;8870;50.950;11.762;2023-01-25T09:54:08;99996.78;;;-0.48;100.00
17505;BME280;8870;50.950;11.762;2023-01-25T09:59:28;99989.91;;;-0.54;100.00
17505;BME280;8870;50.950;11.762;2023-01-25T10:05:10;99995.81;;;-0.45;100.00
17505;BME280;8870;50.950;11.762;2023-01-25T10:10:44;99982.41;;;-0.41;100.00
17505;BME280;8870;50.950;11.762;2023-01-25T10:16:08;99978.16;;;-0.45;100.00
17505;BME280;8870;50.950;11.762;2023-01-25T10:21:53;99978.00;;;-0.40;100.00
17505;BME280;8870;50.950;11.762;2023-01-25T10:27:24;99965.50;;;-0.37;100.00
17505;BME280;8870;50.950;11.762;2023-01-25T10:33:05;99955.19;;;-0.44;100.00
17505;BME280;8870;50.950;11.762;2023-01-25T10:38:31;99927.13;;;-0.50;100.00
17505;BME280;8870;50.950;11.762;2023-01-25T10:44:04;99921.63;;;-0.44;100.00
17505;BME280;8870;50.950;11.762;2023-01-25T10:49:41;99913.78;;;-0.47;100.00
17505;BME280;8870;50.950;11.762;2023-01-25T10:55:17;99896.06;;;-0.45;100.00
17505;BME280;8870;50.950;11.762;2023-01-25T11:00:39;99889.91;;;-0.45;100.00
17505;BME280;8870;50.950;11.762;2023-01-25T11:06:11;99882.84;;;-0.45;100.00
17505;BME280;8870;50.950;11.762;2023-01-25T11:11:52;99877.66;;;-0.48;100.00
17505;BME280;8870;50.950;11.762;2023-01-25T11:17:22;99865.31;;;-0.49;100.00
17505;BME280;8870;50.950;11.762;2023-01-25T11:22:55;99859.44;;;-0.57;100.00
17505;BME280;8870;50.950;11.762;2023-01-25T11:28:19;99861.75;;;-0.48;100.00
17505;BME280;8870;50.950;11.762;2023-01-25T11:33:51;99848.13;;;-0.37;100.00
17505;BME280;8870;50.950;11.762;2023-01-25T11:39:22;99834.47;;;-0.26;100.00
17505;BME280;8870;50.950;11.762;2023-01-25T11:45:16;99823.88;;;-0.26;100.00
17505;BME280;8870;50.950;11.762;2023-01-25T11:50:44;99815.94;;;-0.26;100.00
17505;BME280;8870;50.950;11.762;2023-01-25T11:56:26;99793.66;;;-0.21;100.00
17505;BME280;8870;50.950;11.762;2023-01-25T12:02:00;99793.66;;;-0.21;100.00
17505;BME280;8870;50.950;11.762;2023-01-25T12:07:42;99783.31;;;-0.27;100.00
17505;BME280;8870;50.950;11.762;2023-01-25T12:13:22;99773.81;;;-0.33;100.00
17505;BME280;8870;50.950;11.762;2023-01-25T12:19:04;99764.19;;;-0.35;100.00
17505;BME280;8870;50.950;11.762;2023-01-25T12:24:48;99744.59;;;-0.31;100.00
17505;BME280;8870;50.950;11.762;2023-01-25T12:30:15;99727.00;;;-0.32;100.00
17505;BME280;8870;50.950;11.762;2023-01-25T12:35:58;99736.44;;;-0.25;100.00
17505;BME280;8870;50.950;11.762;2023-01-25T12:41:28;99733.47;;;-0.17;100.00
17505;BME280;8870;50.950;11.762;2023-01-25T12:47:06;99719.25;;;-0.14;100.00
17505;BME280;8870;50.950;11.762;2023-01-25T12:52:32;99717.56;;;-0.17;100.00
17505;BME280;8870;50.950;11.762;2023-01-25T12:58:10;99693.88;;;-0.20;100.00
17505;BME280;8870;50.950;11.762;2023-01-25T13:03:55;99693.88;;;-0.20;100.00
17505;BME280;8870;50.950;11.762;2023-01-25T13:09:38;99688.19;;;-0.11;100.00
17505;BME280;8870;50.950;11.762;2023-01-25T13:15:00;99681.28;;;-0.15;100.00
17505;BME280;8870;50.950;11.762;2023-01-25T13:20:48;99666.81;;;-0.06;100.00
17505;BME280;8870;50.950;11.762;2023-01-25T13:26:50;99669.28;;;-0.02;100.00
17505;BME280;8870;50.950;11.762;2023-01-25T13:38:33;99634.81;;;-0.22;100.00
17505;BME280;8870;50.950;11.762;2023-01-25T13:44:19;99621.03;;;-0.30;100.00
17505;BME280;8870;50.950;11.762;2023-01-25T13:49:54;99623.47;;;-0.26;100.00
17505;BME280;8870;50.950;11.762;2023-01-25T13:55:28;99614.66;;;-0.26;100.00
17505;BME280;8870;50.950;11.762;2023-01-25T14:00:53;99600.78;;;-0.33;100.00
17505;BME280;8870;50.950;11.762;2023-01-25T14:06:29;99595.31;;;-0.28;100.00
17505;BME280;8870;50.950;11.762;2023-01-25T14:12:03;99590.41;;;-0.38;100.00
17505;BME280;8870;50.950;11.762;2023-01-25T14:17:28;99581.41;;;-0.34;100.00
17505;BME280;8870;50.950;11.762;2023-01-25T14:23:01;99578.66;;;-0.30;100.00
17505;BME280;8870;50.950;11.762;2023-01-25T14:28:20;99568.19;;;-0.34;100.00
17505;BME280;8870;50.950;11.762;2023-01-25T14:33:54;99564.66;;;-0.34;100.00
17505;BME280;8870;50.950;11.762;2023-01-25T14:39:26;99551.69;;;-0.40;100.00
17505;BME280;8870;50.950;11.762;2023-01-25T14:45:00;99542.63;;;-0.35;100.00
17505;BME280;8870;50.950;11.762;2023-01-25T14:50:31;99550.38;;;-0.30;100.00
17505;BME280;8870;50.950;11.762;2023-01-25T14:56:04;99541.56;;;-0.30;100.00
17505;BME280;8870;50.950;11.762;2023-01-25T15:01:27;99533.56;;;-0.29;100.00
17505;BME280;8870;50.950;11.762;2023-01-25T15:12:54;99510.72;;;-0.32;100.00
17505;BME280;8870;50.950;11.762;2023-01-25T15:24:27;99502.69;;;-0.30;100.00
17505;BME280;8870;50.950;11.762;2023-01-25T15:29:44;99496.91;;;-0.40;100.00
17505;BME280;8870;50.950;11.762;2023-01-25T15:35:18;99485.72;;;-0.47;100.00
17505;BME280;8870;50.950;11.762;2023-01-25T15:40:45;99476.09;;;-0.48;100.00
17505;BME280;8870;50.950;11.762;2023-01-25T15:46:28;99472.09;;;-0.58;100.00
17505;BME280;8870;50.950;11.762;2023-01-25T15:51:51;99472.03;;;-0.56;100.00
17505;BME280;8870;50.950;11.762;2023-01-25T15:57:31;99464.81;;;-0.53;100.00
17505;BME280;8870;50.950;11.762;2023-01-25T16:03:06;99463.97;;;-0.53;100.00
17505;BME280;8870;50.950;11.762;2023-01-25T16:08:25;99472.84;;;-0.54;100.00
17505;BME280;8870;50.950;11.762;2023-01-25T16:19:34;99465.81;;;-0.55;100.00
17505;BME280;8870;50.950;11.762;2023-01-25T16:25:08;99465.94;;;-0.58;100.00
17505;BME280;8870;50.950;11.762;2023-01-25T16:30:26;99459.84;;;-0.60;100.00
17505;BME280;8870;50.950;11.762;2023-01-25T16:53:39;99443.56;;;-0.72;100.00
17505;BME280;8870;50.950;11.762;2023-01-25T16:59:22;99432.34;;;-0.77;100.00
17505;BME280;8870;50.950;11.762;2023-01-25T17:04:55;99431.25;;;-0.73;100.00
17505;BME280;8870;50.950;11.762;2023-01-25T17:10:19;99432.84;;;-0.69;100.00
17505;BME280;8870;50.950;11.762;2023-01-25T17:15:56;99432.91;;;-0.70;100.00
17505;BME280;8870;50.950;11.762;2023-01-25T17:21:23;99420.44;;;-0.67;100.00
17505;BME280;8870;50.950;11.762;2023-01-25T17:27:16;99415.91;;;-0.65;100.00
17505;BME280;8870;50.950;11.762;2023-01-25T17:32:35;99416.84;;;-0.66;100.00
17505;BME280;8870;50.950;11.762;2023-01-25T17:38:11;99401.34;;;-0.75;100.00
17505;BME280;8870;50.950;11.762;2023-01-25T17:43:36;99402.34;;;-0.78;100.00
17505;BME280;8870;50.950;11.762;2023-01-25T17:49:11;99404.28;;;-0.81;100.00
17505;BME280;8870;50.950;11.762;2023-01-25T17:54:24;99396.34;;;-0.81;100.00
17505;BME280;8870;50.950;11.762;2023-01-25T18:05:36;99389.13;;;-0.78;100.00
17505;BME280;8870;50.950;11.762;2023-01-25T18:10:59;99376.75;;;-0.77;100.00
17505;BME280;8870;50.950;11.762;2023-01-25T18:27:55;99354.91;;;-0.82;100.00
17505;BME280;8870;50.950;11.762;2023-01-25T18:33:29;99355.84;;;-0.83;100.00
17505;BME280;8870;50.950;11.762;2023-01-25T18:38:55;99350.47;;;-0.82;100.00
17505;BME280;8870;50.950;11.762;2023-01-25T18:44:30;99323.16;;;-0.82;100.00
17505;BME280;8870;50.950;11.762;2023-01-25T18:49:54;99325.91;;;-0.84;100.00
17505;BME280;8870;50.950;11.762;2023-01-25T18:55:27;99314.31;;;-0.81;100.00
17505;BME280;8870;50.950;11.762;2023-01-25T19:01:04;99303.22;;;-0.89;100.00
17505;BME280;8870;50.950;11.762;2023-01-25T19:06:42;99304.94;;;-0.88;100.00
17505;BME280;8870;50.950;11.762;2023-01-25T19:11:53;99293.00;;;-0.99;100.00
17505;BME280;8870;50.950;11.762;2023-01-25T19:17:28;99291.28;;;-1.00;100.00
17505;BME280;8870;50.950;11.762;2023-01-25T19:22:46;99304.59;;;-1.01;100.00
17505;BME280;8870;50.950;11.762;2023-01-25T19:28:17;99307.56;;;-1.09;100.00
17505;BME280;8870;50.950;11.762;2023-01-25T19:33:38;99300.63;;;-1.12;100.00
17505;BME280;8870;50.950;11.762;2023-01-25T19:39:09;99289.38;;;-1.17;100.00
17505;BME280;8870;50.950;11.762;2023-01-25T19:44:32;99275.38;;;-1.19;100.00
17505;BME280;8870;50.950;11.762;2023-01-25T19:50:09;99264.72;;;-1.17;100.00
17505;BME280;8870;50.950;11.762;2023-01-25T19:55:28;99262.88;;;-1.15;100.00
17505;BME280;8870;50.950;11.762;2023-01-25T20:01:06;99256.00;;;-1.19;100.00
17505;BME280;8870;50.950;11.762;2023-01-25T20:06:28;99249.78;;;-1.18;100.00
17505;BME280;8870;50.950;11.762;2023-01-25T20:11:59;99243.84;;;-1.23;100.00
17505;BME280;8870;50.950;11.762;2023-01-25T20:17:27;99237.56;;;-1.21;100.00
17505;BME280;8870;50.950;11.762;2023-01-25T20:23:03;99229.16;;;-1.31;100.00
17505;BME280;8870;50.950;11.762;2023-01-25T20:28:22;99221.44;;;-1.35;100.00
17505;BME280;8870;50.950;11.762;2023-01-25T20:33:54;99206.41;;;-1.35;100.00
17505;BME280;8870;50.950;11.762;2023-01-25T20:39:17;99202.81;;;-1.32;100.00
17505;BME280;8870;50.950;11.762;2023-01-25T20:44:50;99186.88;;;-1.31;100.00
17505;BME280;8870;50.950;11.762;2023-01-25T20:50:09;99178.94;;;-1.31;100.00
17505;BME280;8870;50.950;11.762;2023-01-25T20:55:53;99181.44;;;-1.28;100.00
17505;BME280;8870;50.950;11.762;2023-01-25T21:01:13;99173.56;;;-1.29;100.00
17505;BME280;8870;50.950;11.762;2023-01-25T21:06:45;99166.50;;;-1.29;100.00
17505;BME280;8870;50.950;11.762;2023-01-25T21:12:07;99160.16;;;-1.25;100.00
17505;BME280;8870;50.950;11.762;2023-01-25T21:17:39;99169.88;;;-1.25;100.00
17505;BME280;8870;50.950;11.762;2023-01-25T21:22:58;99176.88;;;-1.24;100.00
17505;BME280;8870;50.950;11.762;2023-01-25T21:34:02;99183.69;;;-1.18;100.00
17505;BME280;8870;50.950;11.762;2023-01-25T21:39:35;99175.03;;;-1.22;100.00
17505;BME280;8870;50.950;11.762;2023-01-25T21:44:54;99172.47;;;-1.23;100.00
17505;BME280;8870;50.950;11.762;2023-01-25T21:50:42;99174.22;;;-1.24;100.00
17505;BME280;8870;50.950;11.762;2023-01-25T21:56:12;99158.56;;;-1.29;100.00
17505;BME280;8870;50.950;11.762;2023-01-25T22:01:49;99151.69;;;-1.33;100.00
17505;BME280;8870;50.950;11.762;2023-01-25T22:07:11;99146.56;;;-1.36;100.00
17505;BME280;8870;50.950;11.762;2023-01-25T22:12:43;99150.13;;;-1.37;100.00
17505;BME280;8870;50.950;11.762;2023-01-25T22:18:04;99138.69;;;-1.37;100.00
17505;BME280;8870;50.950;11.762;2023-01-25T22:23:41;99145.50;;;-1.32;100.00
17505;BME280;8870;50.950;11.762;2023-01-25T22:29:00;99135.91;;;-1.34;100.00
17505;BME280;8870;50.950;11.762;2023-01-25T22:34:31;99126.13;;;-1.32;100.00
17505;BME280;8870;50.950;11.762;2023-01-25T22:39:53;99130.56;;;-1.33;100.00
17505;BME280;8870;50.950;11.762;2023-01-25T22:45:25;99114.97;;;-1.39;100.00
17505;BME280;8870;50.950;11.762;2023-01-25T22:50:45;99106.97;;;-1.37;100.00
17505;BME280;8870;50.950;11.762;2023-01-25T22:56:20;99099.91;;;-1.37;100.00
17505;BME280;8870;50.950;11.762;2023-01-25T23:01:38;99091.97;;;-1.37;100.00
17505;BME280;8870;50.950;11.762;2023-01-25T23:07:09;99082.56;;;-1.43;100.00
17505;BME280;8870;50.950;11.762;2023-01-25T23:12:36;99068.41;;;-1.42;100.00
17505;BME280;8870;50.950;11.762;2023-01-25T23:18:09;99062.34;;;-1.44;100.00
17505;BME280;8870;50.950;11.762;2023-01-25T23:23:48;99058.75;;;-1.43;100.00
17505;BME280;8870;50.950;11.762;2023-01-25T23:29:24;99054.41;;;-1.44;100.00
17505;BME280;8870;50.950;11.762;2023-01-25T23:34:44;99046.31;;;-1.41;100.00
17505;BME280;8870;50.950;11.762;2023-01-25T23:40:16;99043.81;;;-1.44;100.00
17505;BME280;8870;50.950;11.762;2023-01-25T23:45:38;99044.81;;;-1.46;100.00
17505;BME280;8870;50.950;11.762;2023-01-25T23:51:10;99038.66;;;-1.47;100.00
17505;BME280;8870;50.950;11.762;2023-01-25T23:56:29;99041.09;;;-1.42;100.00
